createdAt,value
2022-10-21T00:00:24.567Z,7.23
2022-10-21T00:03:30.920Z,7.13
2022-10-21T00:06:37.311Z,7.33
2022-10-21T00:09:43.743Z,7.60
2022-10-21T00:12:51.639Z,7.80
2022-10-21T00:16:02.765Z,5.80
2022-10-21T00:19:08.935Z,6.67
2022-10-21T00:22:15.396Z,6.10
2022-10-21T00:25:21.670Z,6.60
2022-10-21T00:28:29.833Z,6.00
2022-10-21T00:31:35.946Z,5.93
2022-10-21T00:34:43.416Z,5.57
2022-10-21T00:37:49.695Z,22.43
2022-10-21T00:40:56.649Z,10.00
2022-10-21T00:44:06.582Z,17.23
2022-10-21T00:47:17.355Z,15.57
2022-10-21T00:50:32.212Z,9.70
2022-10-21T00:53:41.116Z,7.37
2022-10-21T00:56:49.586Z,8.03
2022-10-21T00:59:59.630Z,6.63
2022-10-21T01:03:05.640Z,5.77
2022-10-21T01:06:14.063Z,5.77
2022-10-21T01:09:22.467Z,7.17
2022-10-21T01:12:43.589Z,6.57
2022-10-21T01:15:58.051Z,5.70
2022-10-21T01:19:17.756Z,5.93
2022-10-21T01:22:38.603Z,5.07
2022-10-21T01:26:19.294Z,5.30
2022-10-21T01:29:47.831Z,5.40
2022-10-21T01:33:20.249Z,6.27
2022-10-21T01:36:38.371Z,5.90
2022-10-21T01:39:50.916Z,13.60
2022-10-21T01:43:01.948Z,7.30
2022-10-21T01:46:14.859Z,6.50
2022-10-21T01:49:28.201Z,5.63
2022-10-21T01:52:34.832Z,5.53
2022-10-21T01:55:42.897Z,6.53
2022-10-21T01:58:50.196Z,6.37
2022-10-21T02:01:58.642Z,5.83
2022-10-21T02:05:12.098Z,5.40
2022-10-21T02:08:18.118Z,4.70
2022-10-21T02:11:24.890Z,4.20
2022-10-21T02:14:34.097Z,5.17
2022-10-21T02:17:44.629Z,5.90
2022-10-21T02:20:57.342Z,6.47
2022-10-21T02:24:09.258Z,5.77
2022-10-21T02:27:15.356Z,7.17
2022-10-21T02:30:22.480Z,16.13
2022-10-21T02:33:39.064Z,7.97
2022-10-21T02:36:55.553Z,5.73
2022-10-21T02:40:08.024Z,7.83
2022-10-21T02:43:20.402Z,5.63
2022-10-21T02:46:27.496Z,5.13
2022-10-21T02:49:33.789Z,6.13
2022-10-21T02:52:41.243Z,6.20
2022-10-21T02:55:47.235Z,7.57
2022-10-21T02:58:53.711Z,6.53
2022-10-21T03:01:59.662Z,5.07
2022-10-21T03:05:06.603Z,5.00
2022-10-21T03:08:13.818Z,6.20
2022-10-21T03:11:20.053Z,6.27
2022-10-21T03:14:26.057Z,6.27
2022-10-21T03:17:32.446Z,6.87
2022-10-21T03:20:38.737Z,6.73
2022-10-21T03:23:46.476Z,5.43
2022-10-21T03:26:52.685Z,14.30
2022-10-21T03:29:59.255Z,10.47
2022-10-21T03:33:05.683Z,7.53
2022-10-21T03:36:12.056Z,8.33
2022-10-21T03:39:19.825Z,7.63
2022-10-21T03:42:25.919Z,11.27
2022-10-21T03:45:32.152Z,13.20
2022-10-21T03:48:38.447Z,15.07
2022-10-21T03:51:44.620Z,15.83
2022-10-21T03:54:52.451Z,15.40
2022-10-21T03:57:58.595Z,11.70
2022-10-21T04:01:05.035Z,13.17
2022-10-21T04:04:11.040Z,10.37
2022-10-21T04:07:17.034Z,11.67
2022-10-21T04:10:24.679Z,16.67
2022-10-21T04:13:31.539Z,15.57
2022-10-21T04:16:37.705Z,13.40
2022-10-21T04:19:43.877Z,14.77
2022-10-21T04:22:50.404Z,30.70
2022-10-21T04:25:58.144Z,12.07
2022-10-21T04:29:04.483Z,12.83
2022-10-21T04:32:10.640Z,14.03
2022-10-21T04:35:16.888Z,15.93
2022-10-21T04:38:23.326Z,8.93
2022-10-21T04:41:30.577Z,8.67
2022-10-21T04:44:38.912Z,8.20
2022-10-21T04:47:45.232Z,18.73
2022-10-21T04:50:52.390Z,18.10
2022-10-21T04:53:58.304Z,23.50
2022-10-21T04:57:06.086Z,21.73
2022-10-21T05:00:13.376Z,20.67
2022-10-21T05:03:20.176Z,23.67
2022-10-21T05:06:26.018Z,25.10
2022-10-21T05:09:32.369Z,18.67
2022-10-21T05:12:40.066Z,22.63
2022-10-21T05:15:46.054Z,32.83
2022-10-21T05:18:52.557Z,35.90
2022-10-21T05:21:58.597Z,45.10
2022-10-21T05:25:05.029Z,25.97
2022-10-21T05:28:12.727Z,29.40
2022-10-21T05:31:18.939Z,22.40
2022-10-21T05:34:25.430Z,16.20
2022-10-21T05:37:31.975Z,13.73
2022-10-21T05:40:38.689Z,25.50
2022-10-21T05:43:46.311Z,18.50
2022-10-21T05:46:52.566Z,16.30
2022-10-21T05:49:58.779Z,17.73
2022-10-21T05:53:06.060Z,19.07
2022-10-21T05:56:12.371Z,15.43
2022-10-21T05:59:19.955Z,17.93
2022-10-21T06:02:26.089Z,23.23
2022-10-21T06:05:32.945Z,18.47
2022-10-21T06:08:40.336Z,12.93
2022-10-21T06:11:46.287Z,10.57
2022-10-21T06:14:53.929Z,13.83
2022-10-21T06:18:00.463Z,21.43
2022-10-21T06:21:07.290Z,19.13
2022-10-21T06:24:13.340Z,18.43
2022-10-21T06:27:20.246Z,18.37
2022-10-21T06:30:27.886Z,15.27
2022-10-21T06:33:34.713Z,17.10
2022-10-21T06:36:40.823Z,14.57
2022-10-21T06:39:47.133Z,11.30
2022-10-21T06:42:53.406Z,12.40
2022-10-21T06:46:05.450Z,11.90
2022-10-21T06:49:11.777Z,12.07
2022-10-21T06:52:18.025Z,12.57
2022-10-21T06:55:24.362Z,11.10
2022-10-21T06:58:32.019Z,11.70
2022-10-21T07:01:59.233Z,12.00
2022-10-21T07:05:06.923Z,11.43
2022-10-21T07:08:14.670Z,12.77
2022-10-21T07:11:20.948Z,8.90
2022-10-21T07:14:27.107Z,9.77
2022-10-21T07:17:34.892Z,9.83
2022-10-21T07:20:41.360Z,14.23
2022-10-21T07:23:49.257Z,11.47
2022-10-21T07:26:55.680Z,10.30
2022-10-21T07:30:02.095Z,9.47
2022-10-21T07:33:09.568Z,8.17
2022-10-21T07:36:18.955Z,10.13
2022-10-21T07:39:27.748Z,9.30
2022-10-21T07:42:34.206Z,7.37
2022-10-21T07:45:42.863Z,7.83
2022-10-21T07:48:50.717Z,6.80
2022-10-21T07:51:57.684Z,7.33
2022-10-21T07:55:03.884Z,7.93
2022-10-21T07:58:10.240Z,8.60
2022-10-21T08:01:17.795Z,7.20
2022-10-21T08:04:29.878Z,6.37
2022-10-21T08:07:36.076Z,6.67
2022-10-21T08:10:42.916Z,7.40
2022-10-21T08:13:49.454Z,5.97
2022-10-21T08:16:56.174Z,5.83
2022-10-21T08:20:03.703Z,5.67
2022-10-21T08:23:10.368Z,5.80
2022-10-21T08:26:17.887Z,6.27
2022-10-21T08:29:24.260Z,5.50
2022-10-21T08:32:30.511Z,5.53
2022-10-21T08:35:38.223Z,5.87
2022-10-21T08:38:44.758Z,7.10
2022-10-21T08:42:08.969Z,6.70
2022-10-21T08:45:24.736Z,5.80
2022-10-21T08:48:35.122Z,6.77
2022-10-21T08:51:47.563Z,5.63
2022-10-21T08:54:58.939Z,5.77
2022-10-21T08:58:06.435Z,5.63
2022-10-21T09:01:23.103Z,6.57
2022-10-21T09:04:38.565Z,5.37
2022-10-21T09:07:55.435Z,5.30
2022-10-21T09:11:07.092Z,5.30
2022-10-21T09:14:35.494Z,5.23
2022-10-21T09:17:57.728Z,5.63
2022-10-21T09:21:12.056Z,5.27
2022-10-21T09:24:26.466Z,5.30
2022-10-21T09:27:51.409Z,5.23
2022-10-21T09:31:04.120Z,7.03
2022-10-21T09:34:22.178Z,5.97
2022-10-21T09:37:35.614Z,5.17
2022-10-21T09:40:43.299Z,6.00
2022-10-21T09:43:49.990Z,5.33
2022-10-21T09:46:56.701Z,5.40
2022-10-21T09:50:08.131Z,5.27
2022-10-21T09:53:22.638Z,4.57
2022-10-21T09:56:40.390Z,3.90
2022-10-21T09:59:58.976Z,4.60
2022-10-21T10:03:04.963Z,4.40
2022-10-21T10:06:11.166Z,5.07
2022-10-21T10:09:25.780Z,4.10
2022-10-21T10:12:33.776Z,4.33
2022-10-21T10:15:40.258Z,5.20
2022-10-21T10:18:47.109Z,8.23
2022-10-21T10:22:10.499Z,4.80
2022-10-21T10:25:24.364Z,4.33
2022-10-21T10:28:32.179Z,4.47
2022-10-21T10:31:39.136Z,3.73
2022-10-21T10:34:54.257Z,3.57
2022-10-21T10:38:02.570Z,3.87
2022-10-21T10:41:11.691Z,3.60
2022-10-21T10:44:30.472Z,3.80
2022-10-21T10:47:42.698Z,4.17
2022-10-21T10:50:51.135Z,4.33
2022-10-21T10:54:03.160Z,3.83
2022-10-21T10:57:15.215Z,4.20
2022-10-21T11:00:24.237Z,4.20
2022-10-21T11:03:41.265Z,3.73
2022-10-21T11:06:51.609Z,4.80
2022-10-21T11:10:03.994Z,7.43
2022-10-21T11:13:14.036Z,6.57
2022-10-21T11:16:59.081Z,4.87
2022-10-21T11:20:15.049Z,3.77
2022-10-21T11:23:41.958Z,3.77
2022-10-21T11:26:56.886Z,4.50
2022-10-21T11:30:11.191Z,4.70
2022-10-21T11:33:26.783Z,4.70
2022-10-21T11:36:38.706Z,3.97
2022-10-21T11:39:53.951Z,3.60
2022-10-21T11:43:06.990Z,4.87
2022-10-21T11:46:20.599Z,4.20
2022-10-21T11:49:49.756Z,4.23
2022-10-21T11:53:14.751Z,4.17
2022-10-21T11:56:29.072Z,3.97
2022-10-21T11:59:54.088Z,4.43
2022-10-21T12:03:30.961Z,4.57
2022-10-21T12:06:47.476Z,4.40
2022-10-21T12:09:59.439Z,4.63
2022-10-21T12:13:11.827Z,4.67
2022-10-21T12:16:21.306Z,4.00
2022-10-21T12:19:28.147Z,3.87
2022-10-21T12:22:37.201Z,3.30
2022-10-21T12:25:50.684Z,3.80
2022-10-21T12:29:04.133Z,3.40
2022-10-21T12:32:27.266Z,4.27
2022-10-21T12:35:45.531Z,3.90
2022-10-21T12:38:54.670Z,3.50
2022-10-21T12:42:06.727Z,3.73
2022-10-21T12:45:27.670Z,3.63
2022-10-21T12:48:38.517Z,3.73
2022-10-21T12:51:50.380Z,3.60
2022-10-21T12:55:01.209Z,3.70
2022-10-21T12:58:16.554Z,3.87
2022-10-21T13:01:40.701Z,3.53
2022-10-21T13:04:50.038Z,4.70
2022-10-21T13:08:17.313Z,3.80
2022-10-21T13:11:39.001Z,3.83
2022-10-21T13:14:47.101Z,4.00
2022-10-21T13:17:54.713Z,4.00
2022-10-21T13:21:00.834Z,3.80
2022-10-21T13:24:24.223Z,5.87
2022-10-21T13:31:00.684Z,5.83
2022-10-21T13:34:07.711Z,3.90
2022-10-21T13:37:15.996Z,4.10
2022-10-21T13:40:24.895Z,4.47
2022-10-21T13:43:40.063Z,4.90
2022-10-21T13:46:46.338Z,5.77
2022-10-21T13:49:54.751Z,7.57
2022-10-21T13:53:03.622Z,5.67
2022-10-21T13:56:19.294Z,5.17
2022-10-21T13:59:30.076Z,4.60
2022-10-21T14:02:36.635Z,5.27
2022-10-21T14:05:48.921Z,6.10
2022-10-21T14:08:56.420Z,6.97
2022-10-21T14:12:05.947Z,6.20
2022-10-21T14:15:19.356Z,7.87
2022-10-21T14:18:33.538Z,6.20
2022-10-21T14:21:46.680Z,8.83
2022-10-21T14:24:56.656Z,18.63
2022-10-21T14:28:05.011Z,12.60
2022-10-21T14:31:15.079Z,13.17
2022-10-21T14:34:25.036Z,10.30
2022-10-21T14:37:37.417Z,10.93
2022-10-21T14:40:43.837Z,32.20
2022-10-21T14:43:53.055Z,9.87
2022-10-21T14:47:01.531Z,11.00
2022-10-21T14:50:08.799Z,8.67
2022-10-21T14:53:18.076Z,11.13
2022-10-21T14:56:30.463Z,14.57
2022-10-21T14:59:40.822Z,12.37
2022-10-21T15:02:48.487Z,15.50
2022-10-21T15:06:10.075Z,14.00
2022-10-21T15:09:23.300Z,9.77
2022-10-21T15:12:40.151Z,7.60
2022-10-21T15:15:53.558Z,6.60
2022-10-21T15:19:08.441Z,7.57
2022-10-21T15:22:25.023Z,7.40
2022-10-21T15:25:31.662Z,8.43
2022-10-21T15:28:38.503Z,8.83
2022-10-21T15:31:45.133Z,8.67
2022-10-21T15:34:55.098Z,12.50
2022-10-21T15:38:01.245Z,14.07
2022-10-21T15:41:10.779Z,9.23
2022-10-21T15:44:22.623Z,15.93
2022-10-21T15:47:28.915Z,10.00
2022-10-21T15:50:39.130Z,13.73
2022-10-21T15:53:45.103Z,18.20
2022-10-21T15:56:53.415Z,20.23
2022-10-21T15:59:59.518Z,9.60
2022-10-21T16:03:06.010Z,15.33
2022-10-21T16:06:17.279Z,9.17
2022-10-21T16:09:25.916Z,12.77
2022-10-21T16:12:31.894Z,11.63
2022-10-21T16:15:38.217Z,18.43
2022-10-21T16:18:44.598Z,18.93
2022-10-21T16:21:52.390Z,8.13
2022-10-21T16:24:58.412Z,9.33
2022-10-21T16:28:05.218Z,10.50
2022-10-21T16:31:13.599Z,17.80
2022-10-21T16:34:20.385Z,25.20
2022-10-21T16:37:29.129Z,22.63
2022-10-21T16:40:36.737Z,27.83
2022-10-21T16:43:43.988Z,20.93
2022-10-21T16:46:52.269Z,10.47
2022-10-21T16:50:02.813Z,12.03
2022-10-21T16:53:15.345Z,13.50
2022-10-21T16:56:21.780Z,12.37
2022-10-21T16:59:27.666Z,15.93
2022-10-21T17:02:37.965Z,15.03
2022-10-21T17:05:46.333Z,26.07
2022-10-21T17:08:55.480Z,58.63
2022-10-21T17:12:01.841Z,31.90
2022-10-21T17:15:09.563Z,20.60
2022-10-21T17:18:16.033Z,29.67
2022-10-21T17:21:23.883Z,23.70
2022-10-21T17:24:31.812Z,28.13
2022-10-21T17:27:38.127Z,26.13
2022-10-21T17:30:45.035Z,27.43
2022-10-21T17:33:53.743Z,28.37
2022-10-21T17:37:00.467Z,25.80
2022-10-21T17:40:10.166Z,29.20
2022-10-21T17:43:16.302Z,36.70
2022-10-21T17:46:24.563Z,35.33
2022-10-21T17:49:31.100Z,22.70
2022-10-21T17:52:38.353Z,20.80
2022-10-21T17:55:46.316Z,17.03
2022-10-21T17:58:53.726Z,30.30
2022-10-21T18:02:00.644Z,10.63
2022-10-21T18:05:08.853Z,10.27
2022-10-21T18:08:15.330Z,12.10
2022-10-21T18:11:23.067Z,17.40
2022-10-21T18:14:29.211Z,18.10
2022-10-21T18:17:37.584Z,17.17
2022-10-21T18:20:43.972Z,20.37
2022-10-21T18:23:52.322Z,22.03
2022-10-21T18:26:59.686Z,18.43
2022-10-21T18:30:07.134Z,22.77
2022-10-21T18:33:13.121Z,24.07
2022-10-21T18:36:19.487Z,26.43
2022-10-21T18:39:25.722Z,28.90
2022-10-21T18:42:33.451Z,23.20
2022-10-21T18:45:39.347Z,34.73
2022-10-21T18:48:45.753Z,22.40
2022-10-21T18:51:51.990Z,12.33
2022-10-21T18:54:58.345Z,24.93
2022-10-21T18:58:05.805Z,34.37
2022-10-21T19:01:13.268Z,17.57
2022-10-21T19:04:19.849Z,21.40
2022-10-21T19:07:26.046Z,33.80
2022-10-21T19:10:32.441Z,29.10
2022-10-21T19:13:40.294Z,20.33
2022-10-21T19:16:47.808Z,25.47
2022-10-21T19:19:54.169Z,18.97
2022-10-21T19:23:00.585Z,9.20
2022-10-21T19:26:11.867Z,11.10
2022-10-21T19:29:21.896Z,14.90
2022-10-21T19:32:28.043Z,16.97
2022-10-21T19:35:34.232Z,14.17
2022-10-21T19:38:44.327Z,12.37
2022-10-21T19:41:50.877Z,14.57
2022-10-21T19:44:58.714Z,16.77
2022-10-21T19:48:05.007Z,17.77
2022-10-21T19:51:15.290Z,25.83
2022-10-21T19:54:21.520Z,21.27
2022-10-21T19:57:27.708Z,23.97
2022-10-21T20:00:35.490Z,12.33
2022-10-21T20:03:44.667Z,12.10
2022-10-21T20:06:50.621Z,11.90
2022-10-21T20:09:56.926Z,12.27
2022-10-21T20:13:03.319Z,13.50
2022-10-21T20:16:16.074Z,15.03
2022-10-21T20:19:22.317Z,13.20
2022-10-21T20:22:28.235Z,11.50
2022-10-21T20:25:34.426Z,26.47
2022-10-21T20:28:40.917Z,33.13
2022-10-21T20:31:48.590Z,31.80
2022-10-21T20:34:57.461Z,30.23
2022-10-21T20:38:03.542Z,26.00
2022-10-21T20:41:12.508Z,26.10
2022-10-21T20:44:18.723Z,22.17
2022-10-21T20:47:30.780Z,27.97
2022-10-21T20:50:37.038Z,18.53
2022-10-21T20:56:57.036Z,17.87
2022-10-21T21:00:03.109Z,21.67
2022-10-21T21:03:10.595Z,25.80
2022-10-21T21:06:16.665Z,13.90
2022-10-21T21:10:01.159Z,11.60
2022-10-21T21:12:49.571Z,16.40
2022-10-21T21:16:04.628Z,16.33
2022-10-21T21:19:14.656Z,12.73
2022-10-21T21:22:21.582Z,14.63
2022-10-21T21:25:28.672Z,31.07
2022-10-21T21:28:36.372Z,24.80
2022-10-21T21:31:43.872Z,21.27
2022-10-21T21:34:55.341Z,14.17
2022-10-21T21:38:01.227Z,12.80
2022-10-21T21:41:09.836Z,13.40
2022-10-21T21:44:16.960Z,9.40
2022-10-21T21:47:23.151Z,9.63
2022-10-21T21:50:30.944Z,10.93
2022-10-21T21:53:37.131Z,11.60
2022-10-21T21:56:43.910Z,12.83
2022-10-21T21:59:50.278Z,9.60
2022-10-21T22:02:56.984Z,11.80
2022-10-21T22:06:05.579Z,10.50
2022-10-21T22:09:12.179Z,9.73
2022-10-21T22:12:20.912Z,7.80
2022-10-21T22:15:47.154Z,6.50
2022-10-21T22:18:55.187Z,11.30
2022-10-21T22:22:02.615Z,12.10
2022-10-21T22:25:09.798Z,11.97
2022-10-21T22:28:15.888Z,10.60
2022-10-21T22:31:28.892Z,10.70
2022-10-21T22:34:36.781Z,9.77
2022-10-21T22:37:44.430Z,9.23
2022-10-21T22:40:54.241Z,8.80
2022-10-21T22:44:00.743Z,6.37
2022-10-21T22:47:07.284Z,5.87
2022-10-21T22:50:13.627Z,8.13
2022-10-21T22:53:21.255Z,7.37
2022-10-21T22:56:27.908Z,8.17
2022-10-21T22:59:33.934Z,6.30
2022-10-21T23:02:40.161Z,10.47
2022-10-21T23:05:46.867Z,9.13
2022-10-21T23:08:54.417Z,13.17
2022-10-21T23:12:00.841Z,21.93
2022-10-21T23:15:08.851Z,14.23
2022-10-21T23:18:15.484Z,13.50
2022-10-21T23:21:21.719Z,8.17
2022-10-21T23:24:29.359Z,6.67
2022-10-21T23:27:35.331Z,6.97
2022-10-21T23:30:43.351Z,5.83
2022-10-21T23:33:49.935Z,5.80
2022-10-21T23:36:55.942Z,5.97
2022-10-21T23:40:03.607Z,6.37
2022-10-21T23:43:09.845Z,6.93
2022-10-21T23:46:16.130Z,6.40
2022-10-21T23:49:22.376Z,5.43
2022-10-21T23:52:28.831Z,5.77
2022-10-21T23:55:36.915Z,6.20
2022-10-21T23:58:43.291Z,7.03
